Time;durP1;ratioP1;P1;durP2;ratioP2;P2;SDS_P1;SDS_P2;PMS_P1;PMS_P2;Temp;Humidity;BMP_temperature;BMP_pressure;BME280_temperature;BME280_humidity;BME280_pressure;Samples;Min_cycle;Max_cycle;Signal;HPM_P1;HPM_P2
2022/10/15 00:00:07;;;;;;;2.03;1.20;;;;;;;17.39;80.85;98753.84;337622;29;1108;-71
2022/10/15 00:00:19;;;;;;;1.75;1.23;;;;;;;17.39;80.70;98759.09;336577;29;1433;-71
2022/10/15 00:00:31;;;;;;;1.52;1.10;;;;;;;17.40;80.75;98752.88;337225;29;1734;-71
2022/10/15 00:00:43;;;;;;;1.77;0.98;;;;;;;17.40;80.82;98755.50;337489;29;1187;-71
2022/10/15 00:01:14;;;;;;;2.00;0.90;;;;;;;17.42;80.72;98750.97;337495;29;1104;-71
2022/10/15 00:01:26;;;;;;;1.10;0.70;;;;;;;17.42;80.54;98755.38;337294;29;1699;-71
2022/10/15 00:01:38;;;;;;;1.20;0.68;;;;;;;17.43;80.52;98750.03;338231;29;1056;-71
2022/10/15 00:01:50;;;;;;;1.13;0.60;;;;;;;17.42;80.74;98750.13;338693;29;1198;-71
2022/10/15 00:02:02;;;;;;;1.08;0.60;;;;;;;17.44;80.71;98749.06;337971;29;1886;-71
2022/10/15 00:02:14;;;;;;;0.80;0.60;;;;;;;17.45;80.60;98748.13;337417;29;2093;-71
2022/10/15 00:02:26;;;;;;;1.30;0.80;;;;;;;17.45;80.53;98742.88;337948;29;1498;-71
2022/10/15 00:02:38;;;;;;;1.50;0.85;;;;;;;17.46;80.45;98757.66;338191;29;1035;-71
2022/10/15 00:02:50;;;;;;;1.33;0.73;;;;;;;17.47;80.51;98754.09;338687;29;1161;-71
2022/10/15 00:03:02;;;;;;;0.75;0.55;;;;;;;17.49;80.41;98748.72;338667;29;1163;-71
2022/10/15 00:03:14;;;;;;;0.70;0.50;;;;;;;17.47;80.38;98751.47;337554;29;2243;-71
2022/10/15 00:03:26;;;;;;;0.50;0.50;;;;;;;17.47;80.51;98746.22;337239;29;1756;-71
2022/10/15 00:03:40;;;;;;;0.90;0.50;;;;;;;17.47;80.48;98750.63;337222;29;1640;-71
2022/10/15 00:03:52;;;;;;;1.48;0.60;;;;;;;17.47;80.59;98751.47;337179;29;1033;-71
2022/10/15 00:04:04;;;;;;;1.50;0.60;;;;;;;17.49;80.42;98744.31;337719;29;1031;-71
2022/10/15 00:04:16;;;;;;;0.90;0.57;;;;;;;17.49;80.42;98752.19;336551;29;2044;-72
2022/10/15 00:04:29;;;;;;;2.60;0.60;;;;;;;17.49;80.50;98746.94;336623;29;1844;-71
2022/10/15 00:04:41;;;;;;;2.63;0.70;;;;;;;17.50;80.51;98751.22;337113;29;1961;-72
2022/10/15 00:04:53;;;;;;;0.60;0.60;;;;;;;17.50;80.46;98748.59;338358;29;1079;-72
2022/10/15 00:05:05;;;;;;;0.80;0.60;;;;;;;17.51;80.41;98752.91;338328;29;1059;-71
2022/10/15 00:05:17;;;;;;;0.70;0.60;;;;;;;17.52;80.50;98749.31;337348;29;2204;-71
2022/10/15 00:05:30;;;;;;;1.00;0.60;;;;;;;17.53;80.44;98753.63;337739;29;1547;-71
2022/10/15 00:05:42;;;;;;;1.55;0.65;;;;;;;17.53;80.33;98751.00;336778;29;2201;-71
2022/10/15 00:05:54;;;;;;;1.70;0.60;;;;;;;17.53;80.43;98744.91;338460;29;1537;-71
2022/10/15 00:06:09;;;;;;;2.00;0.60;;;;;;;17.53;80.51;98751.00;339715;29;1115;-70
2022/10/15 00:06:21;;;;;;;1.25;0.60;;;;;;;17.56;80.28;98749.94;338939;29;1296;-71
2022/10/15 00:06:33;;;;;;;1.00;0.50;;;;;;;17.58;80.26;98750.66;338071;29;4202;-71
2022/10/15 00:06:45;;;;;;;1.20;0.47;;;;;;;17.58;80.21;98751.47;337608;29;1911;-70
2022/10/15 00:06:57;;;;;;;0.70;0.40;;;;;;;17.61;80.38;98752.22;336790;29;1323;-70
2022/10/15 00:07:09;;;;;;;0.57;0.50;;;;;;;17.61;80.43;98752.22;337482;29;1085;-71
2022/10/15 00:07:21;;;;;;;0.75;0.60;;;;;;;17.61;80.23;98747.81;336994;29;1577;-71
2022/10/15 00:07:33;;;;;;;0.80;0.60;;;;;;;17.61;80.45;98747.81;337160;29;1016;-71
2022/10/15 00:07:46;;;;;;;0.52;0.50;;;;;;;17.60;80.24;98754.00;337735;29;1271;-71
2022/10/15 00:07:58;;;;;;;1.45;0.52;;;;;;;17.58;80.33;98746.22;337836;29;1752;-71
2022/10/15 00:08:11;;;;;;;2.45;0.60;;;;;;;17.57;80.36;98747.19;336767;29;2301;-71
2022/10/15 00:08:22;;;;;;;3.53;0.60;;;;;;;17.58;80.34;98743.59;337952;29;1833;-71
2022/10/15 00:08:35;;;;;;;2.08;0.50;;;;;;;17.60;80.28;98755.78;338254;29;1137;-71
2022/10/15 00:08:47;;;;;;;1.67;0.50;;;;;;;17.60;80.18;98751.38;335827;29;1792;-71
2022/10/15 00:08:59;;;;;;;0.70;0.60;;;;;;;17.62;80.21;98748.63;335755;29;1040;-71
2022/10/15 00:09:11;;;;;;;0.80;0.70;;;;;;;17.62;80.20;98753.88;335305;29;2282;-71
2022/10/15 00:09:23;;;;;;;1.02;0.68;;;;;;;17.62;80.22;98743.38;336412;29;1850;-71
2022/10/15 00:09:35;;;;;;;1.30;0.60;;;;;;;17.64;80.30;98751.97;336835;29;1302;-71
2022/10/15 00:09:47;;;;;;;1.17;0.50;;;;;;;17.62;80.27;98749.47;336829;29;1194;-71
2022/10/15 00:09:59;;;;;;;2.42;0.50;;;;;;;17.61;80.24;98753.06;334648;29;1821;-71
2022/10/15 00:10:11;;;;;;;2.47;0.57;;;;;;;17.63;80.25;98747.69;335241;29;2469;-71
2022/10/15 00:10:23;;;;;;;1.95;0.60;;;;;;;17.62;80.08;98748.63;335249;29;1862;-70
2022/10/15 00:10:36;;;;;;;1.50;0.60;;;;;;;17.62;79.97;98743.38;334281;29;1847;-70
2022/10/15 00:10:48;;;;;;;1.42;0.60;;;;;;;17.62;79.90;98746.00;334800;29;1270;-71
2022/10/15 00:11:05;;;;;;;0.80;0.60;;;;;;;17.62;79.96;98746.81;335878;29;1651;-70
2022/10/15 00:11:20;;;;;;;1.00;0.55;;;;;;;17.62;80.02;98748.63;335996;29;1793;-70
2022/10/15 00:11:32;;;;;;;2.42;0.52;;;;;;;17.62;79.86;98748.63;335580;29;1782;-70
2022/10/15 00:11:44;;;;;;;2.92;0.57;;;;;;;17.62;80.05;98748.63;335695;29;1122;-70
2022/10/15 00:11:56;;;;;;;1.40;0.60;;;;;;;17.61;79.90;98752.22;335324;29;1880;-70
2022/10/15 00:12:08;;;;;;;0.88;0.55;;;;;;;17.60;80.00;98754.00;337320;29;1098;-70
2022/10/15 00:12:20;;;;;;;0.80;0.60;;;;;;;17.61;80.15;98744.34;336234;29;2151;-70
2022/10/15 00:12:32;;;;;;;1.65;0.68;;;;;;;17.61;80.16;98745.16;337393;29;1909;-70
2022/10/15 00:12:44;;;;;;;2.45;0.70;;;;;;;17.62;79.97;98751.25;337678;29;1072;-70
2022/10/15 00:12:56;;;;;;;1.67;0.70;;;;;;;17.62;80.07;98746.81;337295;29;1116;-70
2022/10/15 00:13:08;;;;;;;2.00;0.68;;;;;;;17.63;80.03;98755.56;337773;29;1250;-70
2022/10/15 00:13:20;;;;;;;1.40;0.60;;;;;;;17.63;79.93;98755.56;336335;29;2151;-70
2022/10/15 00:13:32;;;;;;;1.50;0.68;;;;;;;17.63;80.02;98745.06;336880;29;1670;-70
2022/10/15 00:13:44;;;;;;;1.88;0.60;;;;;;;17.64;80.14;98747.53;336536;29;1088;-70
2022/10/15 00:13:58;;;;;;;1.77;0.60;;;;;;;17.65;80.29;98748.41;337295;29;1098;-70
2022/10/15 00:14:10;;;;;;;1.02;0.60;;;;;;;17.65;80.01;98745.78;337397;29;2138;-70
2022/10/15 00:14:22;;;;;;;0.57;0.50;;;;;;;17.65;80.08;98753.66;337083;29;1714;-70
2022/10/15 00:14:34;;;;;;;1.80;0.50;;;;;;;17.65;79.91;98745.78;337034;29;1637;-70
2022/10/15 00:14:46;;;;;;;1.75;0.50;;;;;;;17.65;79.88;98751.03;337112;29;1151;-70
2022/10/15 00:14:58;;;;;;;2.00;0.50;;;;;;;17.64;79.86;98747.53;335725;29;2203;-71
2022/10/15 00:15:10;;;;;;;0.73;0.60;;;;;;;17.64;79.92;98746.72;337061;29;1678;-71
2022/10/15 00:15:22;;;;;;;0.73;0.52;;;;;;;17.63;79.89;98750.31;336775;29;1360;-71
2022/10/15 00:15:36;;;;;;;1.10;0.50;;;;;;;17.62;80.03;98746.81;336431;29;1172;-70
2022/10/15 00:15:48;;;;;;;2.65;0.60;;;;;;;17.63;80.21;98750.31;335984;29;1075;-70
2022/10/15 00:16:01;;;;;;;2.83;0.60;;;;;;;17.64;79.92;98749.34;336125;29;2277;-70
2022/10/15 00:16:16;;;;;;;0.93;0.50;;;;;;;17.63;79.86;98745.06;337259;29;1578;-70
2022/10/15 00:16:29;;;;;;;0.65;0.60;;;;;;;17.65;80.01;98751.03;336303;29;2732;-70
2022/10/15 00:16:41;;;;;;;1.70;0.80;;;;;;;17.64;80.10;98751.97;337227;29;1170;-70
2022/10/15 00:16:53;;;;;;;2.33;0.70;;;;;;;17.65;80.00;98748.41;336930;29;1697;-70
2022/10/15 00:17:04;;;;;;;1.77;0.63;;;;;;;17.65;79.94;98751.03;337131;29;1754;-70
2022/10/15 00:17:16;;;;;;;1.55;0.65;;;;;;;17.65;79.94;98749.25;335621;29;1873;-70
2022/10/15 00:17:28;;;;;;;1.00;0.63;;;;;;;17.66;80.06;98750.91;337483;29;1433;-70
2022/10/15 00:17:41;;;;;;;1.25;0.60;;;;;;;17.62;80.24;98749.47;337562;29;1173;-70
2022/10/15 00:17:52;;;;;;;2.40;0.70;;;;;;;17.63;80.11;98745.06;337249;29;1024;-70
2022/10/15 00:18:04;;;;;;;1.80;0.70;;;;;;;17.63;80.24;98750.31;336721;29;1730;-71
2022/10/15 00:18:16;;;;;;;1.00;0.70;;;;;;;17.63;80.29;98748.53;336771;29;2111;-71
2022/10/15 00:18:28;;;;;;;0.88;0.68;;;;;;;17.64;80.08;98751.97;336997;29;1471;-71
2022/10/15 00:18:41;;;;;;;0.77;0.60;;;;;;;17.64;80.28;98751.97;337739;29;1242;-71
2022/10/15 00:18:57;;;;;;;0.50;0.50;;;;;;;17.65;80.31;98757.13;337491;29;1068;-71
2022/10/15 00:19:09;;;;;;;0.70;0.50;;;;;;;17.67;80.27;98746.50;337378;29;1846;-71
2022/10/15 00:19:21;;;;;;;0.82;0.60;;;;;;;17.65;80.24;98749.25;336539;29;1362;-71
2022/10/15 00:19:33;;;;;;;0.75;0.60;;;;;;;17.68;80.30;98759.50;337165;29;1821;-71
2022/10/15 00:19:45;;;;;;;1.08;0.70;;;;;;;17.68;80.23;98756.03;337663;29;1047;-71
2022/10/15 00:19:57;;;;;;;1.38;0.60;;;;;;;17.69;80.05;98752.47;337184;29;1319;-71
2022/10/15 00:20:09;;;;;;;1.60;0.63;;;;;;;17.68;79.90;98761.28;337062;29;1222;-71
2022/10/15 00:20:21;;;;;;;1.20;0.60;;;;;;;17.68;79.98;98748.16;336323;29;1590;-71
2022/10/15 00:20:33;;;;;;;1.08;0.63;;;;;;;17.67;79.91;98746.50;336843;29;1124;-70
2022/10/15 00:20:45;;;;;;;1.13;0.87;;;;;;;17.67;79.92;98751.75;336994;29;1209;-70
2022/10/15 00:20:57;;;;;;;1.88;1.40;;;;;;;17.67;79.75;98747.31;336973;29;1028;-70
2022/10/15 00:21:11;;;;;;;3.45;2.90;;;;;;;17.66;79.70;98750.91;337017;29;1054;-70
2022/10/15 00:21:24;;;;;;;4.78;4.28;;;;;;;17.64;79.85;98746.72;336928;29;1676;-70
2022/10/15 00:21:37;;;;;;;4.97;4.47;;;;;;;17.64;79.75;98751.97;336841;29;1208;-70
2022/10/15 00:21:49;;;;;;;5.00;4.50;;;;;;;17.65;79.81;98753.66;336948;29;1060;-70
2022/10/15 00:22:01;;;;;;;5.18;4.72;;;;;;;17.65;79.76;98751.03;337058;29;1078;-70
2022/10/15 00:22:13;;;;;;;5.50;5.00;;;;;;;17.66;80.18;98750.06;336752;29;2236;-70
2022/10/15 00:22:25;;;;;;;5.60;5.10;;;;;;;17.64;79.95;98750.19;336663;29;1895;-70
2022/10/15 00:22:37;;;;;;;5.07;4.28;;;;;;;17.67;80.01;98746.50;337268;29;1080;-70
2022/10/15 00:22:49;;;;;;;5.25;3.65;;;;;;;17.65;80.02;98751.88;337402;29;1199;-70
2022/10/15 00:23:01;;;;;;;4.32;2.35;;;;;;;17.65;80.00;98743.97;337725;29;1029;-70
2022/10/15 00:23:13;;;;;;;2.47;1.55;;;;;;;17.65;80.08;98748.41;336655;29;2290;-70
2022/10/15 00:23:25;;;;;;;2.10;1.10;;;;;;;17.65;80.11;98751.88;337166;29;1446;-70
2022/10/15 00:23:37;;;;;;;1.30;1.20;;;;;;;17.64;80.37;98751.97;337286;29;1024;-70
2022/10/15 00:23:50;;;;;;;1.58;1.23;;;;;;;17.65;80.41;98748.41;337054;29;1291;-70
2022/10/15 00:24:02;;;;;;;2.13;1.50;;;;;;;17.65;80.50;98745.78;336605;29;2223;-70
2022/10/15 00:24:14;;;;;;;2.25;1.55;;;;;;;17.66;80.39;98748.28;337045;29;1908;-70
2022/10/15 00:24:26;;;;;;;2.22;1.50;;;;;;;17.67;80.21;98751.75;337232;29;1260;-70
2022/10/15 00:24:38;;;;;;;1.70;1.58;;;;;;;17.68;80.29;98748.97;335746;29;1256;-70
2022/10/15 00:24:50;;;;;;;2.58;1.80;;;;;;;17.69;80.38;98747.22;336386;29;1076;-70
2022/10/15 00:25:03;;;;;;;2.70;1.98;;;;;;;17.69;80.42;98749.84;337355;29;1212;-70
2022/10/15 00:25:15;;;;;;;2.50;1.77;;;;;;;17.70;80.27;98747.06;336680;29;2297;-70
2022/10/15 00:25:27;;;;;;;1.80;1.60;;;;;;;17.69;80.36;98745.41;336198;29;1922;-71
2022/10/15 00:25:41;;;;;;;3.28;1.85;;;;;;;17.72;80.42;98749.59;337216;29;1461;-71
2022/10/15 00:26:23;;;;;;;3.65;1.90;;;;;;;17.69;80.34;98749.84;336947;29;1898;-71
2022/10/15 00:26:35;;;;;;;3.60;1.80;;;;;;;17.68;80.36;98748.97;336068;29;1283;-71
2022/10/15 00:26:47;;;;;;;2.40;1.77;;;;;;;17.70;80.28;98752.34;337523;29;1088;-71
2022/10/15 00:26:59;;;;;;;2.13;1.70;;;;;;;17.64;80.35;98742.28;337402;29;1019;-71
2022/10/15 00:27:11;;;;;;;1.77;1.50;;;;;;;17.64;80.45;98746.72;337340;29;1031;-71
2022/10/15 00:27:23;;;;;;;1.60;1.40;;;;;;;17.65;80.43;98745.78;337325;29;1308;-71
2022/10/15 00:27:35;;;;;;;1.58;1.20;;;;;;;17.63;80.26;98751.16;337254;29;1012;-71
2022/10/15 00:27:47;;;;;;;2.78;1.10;;;;;;;17.63;80.31;98745.06;336972;29;1048;-70
2022/10/15 00:27:59;;;;;;;2.90;1.10;;;;;;;17.63;80.30;98745.06;336141;29;1717;-70
2022/10/15 00:28:11;;;;;;;2.30;1.05;;;;;;;17.63;80.41;98745.06;336878;29;2074;-70
2022/10/15 00:28:23;;;;;;;1.27;0.98;;;;;;;17.64;80.33;98744.09;337333;29;1388;-70
2022/10/15 00:28:35;;;;;;;1.10;0.90;;;;;;;17.63;80.52;98745.88;336955;29;2014;-70
2022/10/15 00:28:52;;;;;;;1.08;0.98;;;;;;;17.62;80.46;98746.00;336934;29;1035;-70
2022/10/15 00:29:04;;;;;;;1.63;1.30;;;;;;;17.63;80.41;98739.81;337356;29;1091;-70
2022/10/15 00:29:16;;;;;;;1.55;1.20;;;;;;;17.63;80.30;98742.44;336907;29;1333;-70
2022/10/15 00:29:28;;;;;;;1.40;1.13;;;;;;;17.63;80.49;98745.06;336528;29;1684;-70
2022/10/15 00:29:40;;;;;;;1.75;1.05;;;;;;;17.64;80.68;98747.53;337990;29;1219;-70
2022/10/15 00:29:52;;;;;;;2.38;1.05;;;;;;;17.64;80.44;98746.72;338140;29;1212;-70
2022/10/15 00:30:05;;;;;;;2.25;0.90;;;;;;;17.63;80.45;98750.31;337402;29;1060;-70
2022/10/15 00:30:17;;;;;;;1.70;0.90;;;;;;;17.63;80.42;98745.06;337334;29;1297;-70
2022/10/15 00:30:29;;;;;;;1.20;0.93;;;;;;;17.62;80.46;98744.19;337445;29;1300;-70
2022/10/15 00:30:41;;;;;;;1.17;1.08;;;;;;;17.62;80.63;98744.19;336629;29;1598;-70
2022/10/15 00:30:59;;;;;;;1.98;1.35;;;;;;;17.63;80.50;98737.19;336752;29;1777;-70
2022/10/15 00:31:16;;;;;;;2.58;1.20;;;;;;;17.64;80.52;98746.72;337704;29;1108;-70
2022/10/15 00:31:29;;;;;;;1.45;1.10;;;;;;;17.65;80.70;98743.16;336945;29;1314;-70
2022/10/15 00:31:41;;;;;;;1.40;1.17;;;;;;;17.66;80.65;98748.28;337444;29;1020;-70
2022/10/15 00:31:53;;;;;;;1.20;1.10;;;;;;;17.67;80.52;98741.25;337242;29;1149;-70
2022/10/15 00:32:05;;;;;;;2.00;1.10;;;;;;;17.68;80.71;98746.34;337194;29;1142;-70
2022/10/15 00:32:17;;;;;;;1.95;1.00;;;;;;;17.69;80.54;98744.59;336443;29;2230;-70
2022/10/15 00:32:30;;;;;;;1.15;0.88;;;;;;;17.68;80.63;98742.91;336224;29;1886;-70
2022/10/15 00:32:42;;;;;;;1.40;0.80;;;;;;;17.69;80.57;98747.22;336799;29;1763;-70
2022/10/15 00:32:54;;;;;;;1.20;0.63;;;;;;;17.68;80.70;98748.16;337290;29;1074;-70
2022/10/15 00:33:06;;;;;;;0.93;0.60;;;;;;;17.67;80.76;98747.31;337220;29;1260;-70
2022/10/15 00:33:17;;;;;;;0.60;0.52;;;;;;;17.67;80.42;98746.50;336446;29;2215;-70
2022/10/15 00:33:30;;;;;;;0.70;0.70;;;;;;;17.67;80.39;98747.31;336909;29;1807;-71
2022/10/15 00:33:43;;;;;;;0.68;0.68;;;;;;;17.67;80.50;98746.50;337216;29;1060;-71
2022/10/15 00:33:58;;;;;;;2.03;0.70;;;;;;;17.67;80.38;98746.50;337454;29;1040;-71
2022/10/15 00:34:10;;;;;;;3.60;0.80;;;;;;;17.67;80.51;98747.31;337258;29;1211;-71
2022/10/15 00:34:22;;;;;;;2.15;0.70;;;;;;;17.68;80.39;98748.97;336361;29;1490;-71
2022/10/15 00:34:34;;;;;;;1.50;0.70;;;;;;;17.67;80.40;98744.69;337160;29;1864;-71
2022/10/15 00:34:46;;;;;;;1.20;0.63;;;;;;;17.68;80.72;98745.53;337409;29;1084;-71
2022/10/15 00:34:58;;;;;;;1.20;0.75;;;;;;;17.67;80.46;98743.88;336158;29;1112;-71
2022/10/15 00:35:10;;;;;;;0.80;0.70;;;;;;;17.67;80.43;98747.31;336499;29;1076;-71
2022/10/15 00:35:21;;;;;;;0.80;0.60;;;;;;;17.67;80.39;98749.13;337035;29;1428;-71
2022/10/15 00:35:33;;;;;;;0.73;0.60;;;;;;;17.69;80.48;98741.97;337152;29;1877;-71
2022/10/15 00:35:45;;;;;;;0.93;0.60;;;;;;;17.69;80.35;98745.41;336777;29;1655;-71
2022/10/15 00:36:13;;;;;;;1.00;0.60;;;;;;;17.71;80.50;98747.94;335751;29;2127;-71
2022/10/15 00:36:28;;;;;;;0.90;0.60;;;;;;;17.72;80.57;98746.97;337173;29;1403;-71
2022/10/15 00:36:40;;;;;;;0.77;0.50;;;;;;;17.72;80.57;98749.59;337266;29;1044;-71
2022/10/15 00:36:51;;;;;;;0.50;0.50;;;;;;;17.71;80.61;98740.88;337392;29;1064;-71
2022/10/15 00:37:03;;;;;;;0.70;0.60;;;;;;;17.72;80.52;98741.72;337435;29;1149;-71
2022/10/15 00:37:16;;;;;;;0.95;0.75;;;;;;;17.72;80.48;98744.34;336536;29;2187;-71
2022/10/15 00:37:28;;;;;;;0.85;0.73;;;;;;;17.72;80.49;98744.34;336620;29;1380;-71
2022/10/15 00:37:39;;;;;;;0.80;0.70;;;;;;;17.72;80.44;98739.91;335877;29;2227;-70
2022/10/15 00:37:51;;;;;;;0.60;0.60;;;;;;;17.73;80.54;98740.78;336038;29;1041;-70
2022/10/15 00:38:03;;;;;;;0.80;0.60;;;;;;;17.73;80.59;98743.41;336528;29;2110;-70
2022/10/15 00:38:15;;;;;;;1.17;0.65;;;;;;;17.73;80.53;98741.59;336977;29;2228;-70
2022/10/15 00:38:27;;;;;;;1.20;0.60;;;;;;;17.72;80.46;98741.72;336121;29;1811;-70
2022/10/15 00:38:40;;;;;;;1.10;0.60;;;;;;;17.71;80.46;98740.06;336339;29;1054;-70
2022/10/15 00:38:52;;;;;;;0.57;0.50;;;;;;;17.71;80.38;98737.44;336245;29;2251;-70
2022/10/15 00:39:05;;;;;;;0.80;0.50;;;;;;;17.70;80.37;98743.63;336828;29;1527;-70
2022/10/15 00:39:17;;;;;;;2.13;0.60;;;;;;;17.69;80.47;98745.41;337056;29;1347;-70
2022/10/15 00:39:29;;;;;;;2.13;0.60;;;;;;;17.68;80.48;98742.91;337290;29;2078;-70
2022/10/15 00:39:41;;;;;;;1.20;0.60;;;;;;;17.69;80.70;98741.97;337831;29;1098;-70
2022/10/15 00:39:53;;;;;;;1.10;0.60;;;;;;;17.68;80.50;98742.91;336547;29;1852;-70
2022/10/15 00:40:07;;;;;;;1.23;0.70;;;;;;;17.67;80.34;98742.06;337156;29;1036;-70
2022/10/15 00:40:20;;;;;;;1.55;0.70;;;;;;;17.65;80.66;98737.91;335761;29;1843;-70
2022/10/15 00:40:32;;;;;;;1.70;0.60;;;;;;;17.65;80.50;98743.16;337002;29;1433;-70
2022/10/15 00:40:44;;;;;;;1.85;0.70;;;;;;;17.67;80.64;98741.25;336559;29;1433;-70
2022/10/15 00:40:57;;;;;;;2.00;0.70;;;;;;;17.64;80.46;98741.47;337105;29;1104;-70
2022/10/15 00:41:18;;;;;;;1.02;0.65;;;;;;;17.61;80.80;98732.03;336499;29;1725;-70
2022/10/15 00:41:39;;;;;;;1.52;0.60;;;;;;;17.61;80.81;98736.47;336532;29;1908;-70
2022/10/15 00:41:51;;;;;;;0.85;0.57;;;;;;;17.60;80.79;98734.78;337159;29;1075;-70
2022/10/15 00:42:03;;;;;;;0.70;0.50;;;;;;;17.61;80.86;98731.19;336035;29;1089;-70
2022/10/15 00:42:16;;;;;;;0.98;0.50;;;;;;;17.62;80.75;98735.50;335950;29;1906;-70
2022/10/15 00:42:28;;;;;;;0.85;0.50;;;;;;;17.63;80.62;98739.81;336352;29;1650;-70
2022/10/15 00:42:40;;;;;;;1.05;0.60;;;;;;;17.63;80.64;98735.38;337258;29;1732;-70
2022/10/15 00:42:52;;;;;;;1.10;0.68;;;;;;;17.64;80.63;98731.78;337776;29;1063;-70
2022/10/15 00:43:09;;;;;;;1.08;0.63;;;;;;;17.64;80.81;98736.22;337529;29;2740;-70
2022/10/15 00:43:45;;;;;;;0.90;0.60;;;;;;;17.65;80.76;98735.28;336303;29;2026;-70
2022/10/15 00:43:59;;;;;;;2.50;0.50;;;;;;;17.65;80.78;98735.28;335859;29;1041;-70
2022/10/15 00:44:19;;;;;;;3.42;0.60;;;;;;;17.67;80.59;98738.63;335917;29;1029;-70
2022/10/15 00:44:52;;;;;;;1.60;0.60;;;;;;;17.67;80.77;98741.25;336948;29;2539;-71
2022/10/15 00:45:04;;;;;;;0.47;0.43;;;;;;;17.69;80.76;98739.34;337059;29;1618;-70
2022/10/15 00:45:16;;;;;;;0.40;0.40;;;;;;;17.69;80.86;98739.34;336543;29;1917;-70
2022/10/15 00:45:28;;;;;;;0.50;0.40;;;;;;;17.70;80.71;98741.00;336211;29;1574;-70
2022/10/15 00:45:40;;;;;;;0.60;0.50;;;;;;;17.70;80.94;98741.00;337297;29;1109;-70
2022/10/15 00:45:53;;;;;;;0.60;0.50;;;;;;;17.70;80.78;98735.75;337326;29;1186;-70
2022/10/15 00:46:13;;;;;;;0.80;0.60;;;;;;;17.69;80.90;98734.91;337207;29;1145;-70
2022/10/15 00:46:28;;;;;;;1.02;0.52;;;;;;;17.68;80.78;98735.00;337045;29;1294;-70
2022/10/15 00:46:41;;;;;;;1.75;0.65;;;;;;;17.68;80.99;98740.28;336418;29;1322;-70
2022/10/15 00:46:54;;;;;;;1.80;0.70;;;;;;;17.67;80.73;98738.63;336966;29;1091;-70
2022/10/15 00:47:12;;;;;;;0.90;0.70;;;;;;;17.65;80.55;98735.28;337398;29;1242;-70
2022/10/15 00:47:27;;;;;;;0.88;0.60;;;;;;;17.64;80.63;98736.22;337116;29;1359;-71
2022/10/15 00:47:42;;;;;;;2.10;0.75;;;;;;;17.64;80.56;98744.91;337180;29;1088;-71
2022/10/15 00:47:54;;;;;;;2.03;0.70;;;;;;;17.63;80.69;98739.81;337092;29;1564;-71
2022/10/15 00:48:07;;;;;;;0.95;0.52;;;;;;;17.64;80.59;98741.47;336734;29;1609;-71
2022/10/15 00:48:28;;;;;;;1.60;0.70;;;;;;;17.64;80.55;98741.47;336832;29;2233;-71
2022/10/15 00:48:40;;;;;;;1.40;0.80;;;;;;;17.60;80.52;98740.03;336286;29;1015;-71
2022/10/15 00:48:57;;;;;;;1.13;0.77;;;;;;;17.58;80.82;98733.06;336124;29;1100;-71
2022/10/15 00:49:29;;;;;;;2.22;0.70;;;;;;;17.57;80.84;98736.69;335935;29;1097;-71
2022/10/15 00:49:53;;;;;;;2.45;0.70;;;;;;;17.57;80.95;98736.69;335998;29;1181;-71
2022/10/15 00:50:15;;;;;;;1.85;0.73;;;;;;;17.57;81.07;98736.69;336376;29;1166;-71
2022/10/15 00:50:27;;;;;;;0.93;0.65;;;;;;;17.60;81.03;98734.78;336946;29;1996;-71
2022/10/15 00:50:39;;;;;;;1.15;0.57;;;;;;;17.61;80.92;98736.47;337209;29;1051;-71
2022/10/15 00:50:52;;;;;;;1.60;0.50;;;;;;;17.60;81.08;98732.97;337269;29;1292;-71
2022/10/15 00:51:04;;;;;;;1.42;0.50;;;;;;;17.60;81.00;98735.59;337436;29;1100;-71
2022/10/15 00:51:19;;;;;;;0.90;0.60;;;;;;;17.60;81.01;98738.22;335683;29;2158;-71
2022/10/15 00:51:37;;;;;;;0.77;0.57;;;;;;;17.61;81.12;98731.19;337695;29;1454;-71
2022/10/15 00:51:58;;;;;;;0.50;0.50;;;;;;;17.62;80.89;98732.84;335666;29;1072;-71
2022/10/15 00:52:18;;;;;;;0.60;0.50;;;;;;;17.63;81.20;98742.44;335886;29;1165;-71
2022/10/15 00:53:02;;;;;;;1.20;0.60;;;;;;;17.65;81.05;98737.91;335077;29;1783;-71
2022/10/15 00:53:14;;;;;;;1.53;0.50;;;;;;;17.64;81.23;98736.22;334459;29;2143;-71
2022/10/15 00:53:26;;;;;;;1.75;0.50;;;;;;;17.64;81.14;98736.22;336132;29;1650;-71
2022/10/15 00:53:38;;;;;;;2.20;0.60;;;;;;;17.63;80.99;98734.56;337292;29;1104;-71
2022/10/15 00:53:51;;;;;;;1.20;0.60;;;;;;;17.64;81.04;98741.47;337874;29;1167;-71
2022/10/15 00:54:03;;;;;;;1.00;0.60;;;;;;;17.64;81.04;98736.22;338389;29;1014;-71
2022/10/15 00:54:15;;;;;;;0.82;0.50;;;;;;;17.65;80.96;98738.72;338017;29;2329;-71
2022/10/15 00:54:31;;;;;;;0.65;0.50;;;;;;;17.65;80.94;98743.16;338490;29;1622;-71
2022/10/15 00:54:48;;;;;;;0.63;0.50;;;;;;;17.67;80.91;98739.44;336797;29;1526;-71
2022/10/15 00:55:28;;;;;;;2.08;0.60;;;;;;;17.68;81.01;98740.28;336064;29;1313;-71
2022/10/15 00:55:42;;;;;;;1.75;0.55;;;;;;;17.67;80.99;98744.69;336298;29;1984;-70
2022/10/15 00:55:54;;;;;;;1.50;0.50;;;;;;;17.65;81.09;98737.91;336209;29;2048;-70
2022/10/15 00:56:06;;;;;;;1.65;0.50;;;;;;;17.68;80.95;98742.91;336107;29;2230;-70
2022/10/15 00:56:22;;;;;;;1.05;0.50;;;;;;;17.67;81.15;98741.25;336651;29;1752;-70
2022/10/15 00:56:36;;;;;;;0.75;0.50;;;;;;;17.64;81.30;98739.66;336771;29;1329;-71
2022/10/15 00:56:50;;;;;;;1.60;0.60;;;;;;;17.63;80.99;98740.63;336306;29;2011;-70
2022/10/15 00:57:04;;;;;;;2.15;0.60;;;;;;;17.63;81.25;98735.38;336048;29;1168;-71
2022/10/15 00:57:16;;;;;;;1.48;0.60;;;;;;;17.62;81.18;98732.84;335753;29;1701;-71
2022/10/15 00:57:30;;;;;;;3.00;0.70;;;;;;;17.62;81.26;98738.13;336433;29;1987;-71
2022/10/15 00:57:43;;;;;;;3.55;0.70;;;;;;;17.61;81.26;98736.47;336294;29;1230;-71
2022/10/15 00:57:59;;;;;;;1.40;0.70;;;;;;;17.61;81.40;98746.97;337311;29;1602;-71
2022/10/15 00:58:15;;;;;;;0.88;0.60;;;;;;;17.62;81.32;98732.84;336383;29;1730;-71
2022/10/15 00:58:30;;;;;;;0.80;0.55;;;;;;;17.63;81.52;98731.91;337350;29;1191;-71
2022/10/15 00:58:42;;;;;;;0.55;0.50;;;;;;;17.63;81.34;98729.28;337406;29;1284;-71
2022/10/15 00:58:55;;;;;;;1.15;0.50;;;;;;;17.62;81.25;98738.13;337344;29;1109;-71
2022/10/15 00:59:08;;;;;;;1.17;0.60;;;;;;;17.62;81.29;98733.69;337297;29;1084;-71
2022/10/15 00:59:24;;;;;;;0.75;0.70;;;;;;;17.61;81.23;98737.28;337019;29;1359;-71
2022/10/15 00:59:40;;;;;;;1.27;0.73;;;;;;;17.61;81.39;98732.03;337277;29;1059;-71
2022/10/15 00:59:57;;;;;;;1.40;0.70;;;;;;;17.61;81.41;98737.28;336805;29;1273;-71
2022/10/15 01:00:13;;;;;;;1.40;0.60;;;;;;;17.62;81.44;98738.13;337244;29;1186;-71
2022/10/15 01:00:25;;;;;;;1.83;0.70;;;;;;;17.61;81.52;98739.09;337178;29;1390;-71
2022/10/15 01:00:37;;;;;;;1.55;0.70;;;;;;;17.60;81.37;98740.84;337417;29;1193;-71
2022/10/15 01:00:49;;;;;;;1.70;0.70;;;;;;;17.60;81.52;98735.59;337212;29;1047;-71
2022/10/15 01:01:01;;;;;;;1.80;0.60;;;;;;;17.62;81.24;98735.50;337145;29;1019;-71
2022/10/15 01:01:13;;;;;;;2.30;0.50;;;;;;;17.63;81.37;98734.56;337387;29;1048;-71
2022/10/15 01:01:26;;;;;;;2.30;0.60;;;;;;;17.64;81.44;98736.22;337477;29;1322;-71
2022/10/15 01:01:38;;;;;;;2.10;0.63;;;;;;;17.64;81.49;98728.31;336896;29;2064;-71
2022/10/15 01:01:51;;;;;;;2.20;0.70;;;;;;;17.64;81.57;98733.59;337196;29;1656;-71
2022/10/15 01:02:04;;;;;;;1.20;0.70;;;;;;;17.64;81.65;98736.22;336125;29;1031;-71
2022/10/15 01:02:17;;;;;;;0.98;0.90;;;;;;;17.62;81.63;98744.19;336234;29;1300;-71
2022/10/15 01:02:29;;;;;;;1.30;1.10;;;;;;;17.62;81.69;98735.50;337249;29;1072;-71
2022/10/15 01:02:42;;;;;;;1.35;1.05;;;;;;;17.61;81.51;98734.66;336667;29;1894;-71
2022/10/15 01:02:54;;;;;;;1.20;1.10;;;;;;;17.60;81.72;98732.13;337249;29;1097;-71
2022/10/15 01:03:07;;;;;;;1.58;1.48;;;;;;;17.60;81.84;98734.78;336056;29;1864;-71
2022/10/15 01:03:20;;;;;;;1.88;1.70;;;;;;;17.58;81.78;98735.72;336772;29;1470;-71
2022/10/15 01:03:34;;;;;;;1.90;1.75;;;;;;;17.58;81.78;98738.34;337222;29;1550;-71
2022/10/15 01:03:46;;;;;;;2.90;2.03;;;;;;;17.58;81.87;98733.06;337237;29;1140;-71
2022/10/15 01:04:00;;;;;;;3.00;1.60;;;;;;;17.61;81.77;98733.84;337712;29;1242;-71
2022/10/15 01:04:13;;;;;;;1.75;1.40;;;;;;;17.58;81.60;98733.06;337173;29;1051;-71
2022/10/15 01:04:26;;;;;;;2.17;1.67;;;;;;;17.58;81.55;98727.81;337085;29;1356;-71
2022/10/15 01:04:40;;;;;;;2.33;1.40;;;;;;;17.60;81.36;98726.88;337049;29;1170;-71
2022/10/15 01:04:52;;;;;;;2.30;1.10;;;;;;;17.57;81.63;98731.41;337328;29;1271;-71
2022/10/15 01:05:05;;;;;;;1.48;1.00;;;;;;;17.58;81.49;98727.00;337282;29;1020;-71
2022/10/15 01:05:18;;;;;;;1.40;1.20;;;;;;;17.60;81.32;98730.34;337290;29;1824;-71
2022/10/15 01:05:31;;;;;;;1.20;1.10;;;;;;;17.61;81.77;98731.19;337125;29;1034;-71